Time;durP1;ratioP1;P1;durP2;ratioP2;P2;SDS_P1;SDS_P2;PMS_P1;PMS_P2;Temp;Humidity;BMP_temperature;BMP_pressure;BME280_temperature;BME280_humidity;BME280_pressure;Samples;Min_cycle;Max_cycle;Signal;HPM_P1;HPM_P2
2022/03/14 00:00:49;;;;;;;2.00;1.60;;;;;;;18.87;36.60;97263.50;10032140;29;20054;-57
2022/03/14 00:06:10;;;;;;;1.70;1.52;;;;;;;18.86;36.71;97263.09;10042632;29;20041;-57
2022/03/14 00:11:30;;;;;;;3.38;1.60;;;;;;;18.84;36.42;97269.53;10019330;29;20069;-57
2022/03/14 00:16:51;;;;;;;2.67;1.77;;;;;;;18.83;36.45;97265.22;10044610;29;20114;-57
2022/03/14 00:22:11;;;;;;;2.40;1.45;;;;;;;18.81;36.56;97254.72;10021968;29;20761;-57
2022/03/14 00:27:35;;;;;;;2.38;1.70;;;;;;;18.80;36.40;97255.03;10005840;29;20874;-57
2022/03/14 00:32:56;;;;;;;1.65;1.33;;;;;;;18.78;36.50;97255.34;10027947;29;20588;-57
2022/03/14 00:38:15;;;;;;;2.05;1.73;;;;;;;18.78;36.34;97247.25;10021828;29;20391;-57
2022/03/14 00:43:37;;;;;;;3.72;1.80;;;;;;;18.76;36.51;97257.53;10017246;29;20110;-57
2022/03/14 00:48:56;;;;;;;2.85;1.50;;;;;;;18.75;36.45;97264.03;10017243;29;20490;-57
2022/03/14 00:54:16;;;;;;;1.73;1.48;;;;;;;18.74;36.29;97271.34;10017113;29;20054;-57
2022/03/14 00:59:37;;;;;;;2.33;1.55;;;;;;;18.73;36.37;97274.34;10001656;29;20094;-57
2022/03/14 01:04:56;;;;;;;2.38;1.73;;;;;;;18.71;36.20;97274.63;10003864;29;20058;-57
2022/03/14 01:10:15;;;;;;;1.88;1.40;;;;;;;18.70;36.31;97286.56;10028293;29;20064;-57
2022/03/14 01:15:35;;;;;;;2.33;1.67;;;;;;;18.68;36.15;97283.38;10028377;29;20042;-57
2022/03/14 01:20:55;;;;;;;1.90;1.60;;;;;;;18.68;36.25;97285.25;10015067;29;20119;-57
2022/03/14 01:26:14;;;;;;;1.88;1.40;;;;;;;18.67;36.19;97286.38;10016057;29;20487;-57
2022/03/14 01:31:34;;;;;;;1.83;1.40;;;;;;;18.66;36.14;97293.66;10028144;29;20046;-57
2022/03/14 01:36:53;;;;;;;2.47;1.50;;;;;;;18.64;36.19;97281.56;10020998;29;20057;-57
2022/03/14 01:42:17;;;;;;;1.88;1.60;;;;;;;18.63;36.23;97282.69;10035564;29;20102;-57
2022/03/14 01:47:38;;;;;;;2.50;1.52;;;;;;;18.61;36.27;97277.59;10025577;29;20042;-57
2022/03/14 01:52:57;;;;;;;1.77;1.48;;;;;;;18.61;36.20;97279.50;10023103;29;20110;-57
2022/03/14 01:58:17;;;;;;;2.00;1.60;;;;;;;18.59;36.17;97290.59;10022640;29;20057;-57
2022/03/14 02:03:37;;;;;;;1.48;1.38;;;;;;;18.58;36.15;97297.91;10018756;29;20058;-57
2022/03/14 02:08:56;;;;;;;2.03;1.50;;;;;;;18.57;36.06;97295.50;10019746;29;20053;-57
2022/03/14 02:14:15;;;;;;;1.70;1.40;;;;;;;18.55;36.10;97278.81;10034615;29;20071;-57
2022/03/14 02:19:35;;;;;;;2.08;1.60;;;;;;;18.54;36.16;97283.41;10021500;29;20069;-57
2022/03/14 02:24:54;;;;;;;1.60;1.27;;;;;;;18.53;35.94;97292.59;10022003;29;20058;-57
2022/03/14 02:30:14;;;;;;;1.92;1.35;;;;;;;18.52;36.08;97301.00;10021116;29;20496;-57
2022/03/14 02:35:38;;;;;;;1.50;1.27;;;;;;;18.52;36.12;97306.41;10006846;29;20062;-57
2022/03/14 02:40:58;;;;;;;1.60;1.33;;;;;;;18.49;36.01;97305.13;10020576;29;20057;-57
2022/03/14 02:46:18;;;;;;;2.17;1.60;;;;;;;18.48;36.26;97310.81;10019949;29;20476;-57
2022/03/14 02:51:39;;;;;;;1.77;1.40;;;;;;;18.47;35.97;97312.72;10033055;29;20053;-57
2022/03/14 02:56:58;;;;;;;1.45;1.30;;;;;;;18.46;35.90;97307.63;9995290;29;20046;-57
2022/03/14 03:02:18;;;;;;;2.72;1.50;;;;;;;18.45;35.85;97320.31;10020822;29;20525;-57
2022/03/14 03:07:37;;;;;;;1.60;1.40;;;;;;;18.45;35.93;97324.91;10020260;29;20096;-57
2022/03/14 03:12:57;;;;;;;1.80;1.40;;;;;;;18.43;35.87;97330.63;10020107;29;20058;-57
2022/03/14 03:18:18;;;;;;;1.65;1.55;;;;;;;18.41;35.88;97326.63;10029218;29;20057;-57
2022/03/14 03:23:41;;;;;;;2.10;1.50;;;;;;;18.41;36.00;97332.03;10018978;29;20054;-57
2022/03/14 03:29:01;;;;;;;1.67;1.45;;;;;;;18.39;35.93;97337.72;10019023;29;20665;-57
2022/03/14 03:34:21;;;;;;;1.50;1.40;;;;;;;18.38;35.90;97347.72;10016950;29;20064;-57
2022/03/14 03:39:41;;;;;;;1.75;1.50;;;;;;;18.38;35.83;97355.81;10018778;29;20054;-57
2022/03/14 03:45:00;;;;;;;1.42;1.30;;;;;;;18.36;35.76;97352.59;10017841;29;20054;-57
2022/03/14 03:50:21;;;;;;;1.77;1.50;;;;;;;18.36;35.94;97366.06;10018406;29;20439;-57
2022/03/14 03:55:40;;;;;;;1.42;1.33;;;;;;;18.35;35.77;97355.63;10018644;29;20057;-57
2022/03/14 04:01:00;;;;;;;1.50;1.40;;;;;;;18.33;35.82;97374.78;10018371;29;20081;-57
2022/03/14 04:06:25;;;;;;;2.17;1.60;;;;;;;18.32;35.81;97373.19;10030356;29;20046;-57
2022/03/14 04:11:45;;;;;;;1.70;1.38;;;;;;;18.30;35.82;97380.78;10017547;29;20076;-57
2022/03/14 04:17:06;;;;;;;1.88;1.58;;;;;;;18.29;35.94;97384.59;10017980;29;20109;-57
2022/03/14 04:22:27;;;;;;;1.52;1.40;;;;;;;18.28;35.74;97382.97;10017127;29;20072;-57
2022/03/14 04:27:46;;;;;;;1.50;1.40;;;;;;;18.27;35.73;97394.06;10017544;29;20066;-57
2022/03/14 04:33:08;;;;;;;1.83;1.40;;;;;;;18.26;35.69;97387.88;10016667;29;20430;-57
2022/03/14 04:38:28;;;;;;;1.40;1.30;;;;;;;18.24;35.64;97395.47;10016695;29;20058;-57
2022/03/14 04:43:49;;;;;;;1.40;1.30;;;;;;;18.23;35.76;97399.28;10016700;29;20058;-57
2022/03/14 04:49:09;;;;;;;1.52;1.42;;;;;;;18.22;35.59;97408.44;10017181;29;20512;-57
2022/03/14 04:54:29;;;;;;;1.38;1.27;;;;;;;18.22;35.58;97423.84;10016665;29;20482;-56
2022/03/14 04:59:48;;;;;;;1.58;1.42;;;;;;;18.21;35.76;97424.94;10029066;29;20046;-57
2022/03/14 05:05:11;;;;;;;2.50;1.70;;;;;;;18.20;35.47;97429.53;10001657;29;20061;-56
2022/03/14 05:10:33;;;;;;;2.75;1.60;;;;;;;18.20;35.88;97442.22;10033125;29;20037;-56
2022/03/14 05:15:52;;;;;;;1.90;1.80;;;;;;;18.20;36.27;97450.31;10028939;29;20510;-57
2022/03/14 05:21:12;;;;;;;1.45;1.35;;;;;;;18.20;36.39;97461.91;10028047;29;20054;-57
2022/03/14 05:26:31;;;;;;;1.60;1.50;;;;;;;18.20;36.31;97475.38;10041050;29;20070;-57
2022/03/14 05:31:50;;;;;;;1.92;1.70;;;;;;;18.23;36.50;97477.50;10028039;29;20442;-57
2022/03/14 05:37:10;;;;;;;1.85;1.70;;;;;;;18.24;36.46;97479.06;10027787;29;20053;-57
2022/03/14 05:42:29;;;;;;;2.13;1.85;;;;;;;18.28;36.67;97487.38;10028027;29;20533;-57
2022/03/14 05:47:49;;;;;;;1.95;1.60;;;;;;;18.30;36.90;97480.56;10039484;29;20074;-57
2022/03/14 05:53:11;;;;;;;4.43;2.10;;;;;;;18.33;37.00;97493.47;10024284;29;20058;-56
2022/03/14 05:58:31;;;;;;;2.10;1.80;;;;;;;18.36;37.30;97484.75;10024078;29;20069;-56
2022/03/14 06:03:53;;;;;;;1.60;1.50;;;;;;;18.41;37.35;97483.88;10025950;29;20057;-58
2022/03/14 06:09:12;;;;;;;2.28;1.80;;;;;;;18.45;37.26;97486.78;10024672;29;20061;-58
2022/03/14 06:14:31;;;;;;;2.47;1.90;;;;;;;18.48;37.12;97497.75;10038164;29;20050;-58
2022/03/14 06:19:51;;;;;;;6.15;2.33;;;;;;;18.51;37.24;97509.88;10025484;29;20058;-57
2022/03/14 06:25:12;;;;;;;13.57;3.75;;;;;;;18.54;37.03;97520.03;10018181;29;20054;-57
2022/03/14 06:30:32;;;;;;;15.10;4.20;;;;;;;18.58;37.20;97526.44;10029859;29;20038;-56
2022/03/14 06:35:51;;;;;;;16.25;4.70;;;;;;;18.63;37.13;97529.06;10017422;29;20068;-56
2022/03/14 06:41:12;;;;;;;17.33;5.25;;;;;;;18.67;37.03;97531.97;10016361;29;21966;-56
2022/03/14 06:46:31;;;;;;;18.33;5.47;;;;;;;18.70;36.96;97534.84;10029315;29;20053;-56
2022/03/14 06:51:51;;;;;;;19.67;5.28;;;;;;;18.74;37.03;97543.94;10019275;29;20049;-56
2022/03/14 06:57:10;;;;;;;19.45;5.47;;;;;;;18.79;36.92;97561.94;10020130;29;20061;-56
2022/03/14 07:02:30;;;;;;;17.25;5.65;;;;;;;18.81;36.86;97567.84;10006288;29;20069;-56
2022/03/14 07:07:52;;;;;;;16.00;5.32;;;;;;;18.83;37.02;97575.66;10031361;29;20042;-56
2022/03/14 07:13:14;;;;;;;18.85;5.78;;;;;;;18.86;37.00;97585.88;10020833;29;20053;-56
2022/03/14 07:18:34;;;;;;;14.85;5.30;;;;;;;18.88;36.89;97578.28;10019317;29;20464;-56
2022/03/14 07:23:57;;;;;;;13.65;5.35;;;;;;;18.90;36.93;97584.16;10020186;29;20057;-56
2022/03/14 07:29:16;;;;;;;17.73;5.28;;;;;;;18.92;36.68;97595.47;10020581;29;20053;-56
2022/03/14 07:34:36;;;;;;;13.57;5.30;;;;;;;18.93;36.62;97613.25;10019020;29;20578;-57
2022/03/14 07:39:56;;;;;;;14.32;5.10;;;;;;;18.94;36.65;97625.66;10019797;29;20058;-56
2022/03/14 07:45:18;;;;;;;14.32;5.40;;;;;;;18.94;36.77;97631.88;10019495;29;20056;-56
2022/03/14 07:50:37;;;;;;;13.88;5.03;;;;;;;18.96;36.66;97645.06;10028564;29;20054;-57
2022/03/14 07:55:56;;;;;;;16.73;5.30;;;;;;;18.97;36.37;97646.66;10030782;29;20483;-56
2022/03/14 08:01:17;;;;;;;14.10;5.40;;;;;;;18.99;36.57;97654.47;10018119;29;20050;-56
2022/03/14 08:06:41;;;;;;;14.40;5.05;;;;;;;18.99;36.45;97665.25;10017435;29;20060;-56
2022/03/14 08:12:03;;;;;;;11.48;4.88;;;;;;;18.99;36.35;97670.66;10018258;29;20061;-56
2022/03/14 08:17:22;;;;;;;11.60;4.68;;;;;;;19.00;36.56;97673.06;10018865;29;20455;-56
2022/03/14 08:22:42;;;;;;;11.38;4.53;;;;;;;19.01;36.41;97685.47;10018118;29;20073;-56
2022/03/14 08:28:03;;;;;;;13.90;5.07;;;;;;;19.03;36.33;97687.88;10018704;29;20106;-57
2022/03/14 08:33:24;;;;;;;11.07;4.60;;;;;;;19.03;36.38;97699.47;10017775;29;20394;-55
2022/03/14 08:38:44;;;;;;;8.75;4.40;;;;;;;19.03;36.31;97704.88;10018316;29;20061;-57
2022/03/14 08:44:07;;;;;;;11.27;4.28;;;;;;;19.03;36.28;97715.66;10016992;29;20132;-56
2022/03/14 08:49:26;;;;;;;9.73;4.43;;;;;;;19.05;36.30;97720.78;10015497;29;20054;-56
2022/03/14 08:54:46;;;;;;;8.85;4.28;;;;;;;19.05;36.30;97726.19;10015958;29;20058;-56
2022/03/14 09:00:07;;;;;;;8.45;3.83;;;;;;;19.04;36.36;97728.09;10030064;29;20050;-56
2022/03/14 09:05:28;;;;;;;8.90;4.28;;;;;;;19.04;36.31;97738.09;9981782;29;20135;-56
2022/03/14 09:10:49;;;;;;;9.00;4.10;;;;;;;19.04;36.20;97751.59;10017625;29;20173;-56
2022/03/14 09:16:09;;;;;;;7.35;3.97;;;;;;;19.04;36.22;97754.28;10016752;29;20084;-56
2022/03/14 09:21:33;;;;;;;7.53;4.72;;;;;;;19.03;34.10;97749.97;10013419;29;20505;-56
2022/03/14 09:26:55;;;;;;;7.22;3.92;;;;;;;19.01;34.70;97754.88;10013005;29;20049;-57
2022/03/14 09:32:16;;;;;;;9.80;4.88;;;;;;;19.00;32.99;97762.19;10011995;29;20514;-56
2022/03/14 09:37:36;;;;;;;7.40;4.70;;;;;;;19.00;31.79;97762.19;10026023;29;20132;-56
2022/03/14 09:42:59;;;;;;;8.00;5.05;;;;;;;19.00;31.21;97781.09;10022756;29;20114;-56
2022/03/14 09:48:18;;;;;;;9.10;5.20;;;;;;;18.99;30.15;97770.56;10015575;29;20050;-57
2022/03/14 09:53:38;;;;;;;7.32;4.90;;;;;;;18.97;30.83;97787.06;10012344;29;20057;-56
2022/03/14 09:58:59;;;;;;;7.10;5.18;;;;;;;18.91;28.69;97783.66;10034893;29;20045;-56
2022/03/14 10:04:19;;;;;;;7.60;5.60;;;;;;;18.91;29.30;97786.34;10022367;29;20050;-56
2022/03/14 10:09:38;;;;;;;7.00;5.35;;;;;;;18.91;29.62;97793.66;10022549;29;20510;-56
2022/03/14 10:14:59;;;;;;;7.80;5.45;;;;;;;18.91;29.45;97799.06;10021678;29;20064;-56
2022/03/14 10:20:19;;;;;;;6.03;5.43;;;;;;;18.89;29.38;97785.84;10020712;29;20061;-56
2022/03/14 10:25:42;;;;;;;8.38;5.40;;;;;;;18.88;29.10;97794.25;10048913;29;20605;-57
2022/03/14 10:31:02;;;;;;;8.52;5.80;;;;;;;18.87;28.69;97812.34;10019269;29;20490;-57
2022/03/14 10:36:43;;;;;;;7.65;5.82;;;;;;;18.87;28.29;97809.63;10020206;29;20085;-56
2022/03/14 10:42:04;;;;;;;6.63;5.80;;;;;;;18.86;28.87;97810.75;10021849;29;20057;-57
2022/03/14 10:47:25;;;;;;;7.35;5.28;;;;;;;18.84;28.56;97812.16;10026344;29;20046;-56
2022/03/14 10:52:59;;;;;;;6.65;4.90;;;;;;;18.83;28.12;97810.53;10032452;29;20050;-57
2022/03/14 10:58:23;;;;;;;11.35;6.35;;;;;;;18.79;24.90;97812.97;10009339;29;20492;-56
2022/03/14 11:03:45;;;;;;;7.28;5.70;;;;;;;18.72;26.96;97805.28;10021559;29;20106;-57
2022/03/14 11:09:04;;;;;;;7.60;5.97;;;;;;;18.71;27.53;97822.56;10020310;29;20380;-57
2022/03/14 11:14:28;;;;;;;7.15;5.78;;;;;;;18.71;27.48;97800.97;10017447;29;20049;-56
2022/03/14 11:19:48;;;;;;;6.38;5.35;;;;;;;18.72;27.66;97801.78;10019933;29;20062;-57
2022/03/14 11:25:08;;;;;;;6.28;5.30;;;;;;;18.72;27.97;97794.47;10020424;29;20405;-57
2022/03/14 11:30:35;;;;;;;6.32;5.18;;;;;;;18.74;28.25;97784.19;10019090;29;20105;-57
2022/03/14 11:35:54;;;;;;;7.28;5.32;;;;;;;18.75;28.29;97780.38;10032231;29;20046;-58
2022/03/14 11:41:13;;;;;;;6.80;5.05;;;;;;;18.77;28.60;97777.38;10019955;29;20081;-57
2022/03/14 11:46:36;;;;;;;6.50;4.93;;;;;;;18.79;28.91;97764.41;9982104;29;20054;-57
2022/03/14 11:52:18;;;;;;;6.95;4.95;;;;;;;18.81;29.20;97769.53;10001446;29;20110;-57
2022/03/14 11:57:41;;;;;;;6.28;4.80;;;;;;;18.84;29.43;97785.94;10018749;29;20117;-58
2022/03/14 12:03:03;;;;;;;5.70;5.10;;;;;;;18.86;29.26;97793.75;10014006;29;20061;-57
2022/03/14 12:08:22;;;;;;;6.32;5.35;;;;;;;18.88;27.00;97783.47;10014700;29;20406;-57
2022/03/14 12:13:43;;;;;;;8.93;5.10;;;;;;;18.90;28.73;97787.47;10015562;29;20057;-57
2022/03/14 12:19:25;;;;;;;6.30;5.30;;;;;;;18.92;28.34;97792.56;10018323;29;20447;-57
2022/03/14 12:24:47;;;;;;;6.53;5.22;;;;;;;18.93;28.79;97789.59;10016697;29;20109;-57
2022/03/14 12:30:15;;;;;;;6.20;4.78;;;;;;;18.96;29.00;97796.28;10018287;29;20054;-57
2022/03/14 12:35:37;;;;;;;6.40;4.70;;;;;;;19.01;29.08;97803.47;10017755;29;20122;-57
2022/03/14 12:40:57;;;;;;;5.85;4.72;;;;;;;19.04;29.40;97808.31;10021767;29;20057;-57
2022/03/14 12:46:17;;;;;;;5.75;4.55;;;;;;;19.07;29.40;97808.53;10003531;29;20562;-57
2022/03/14 12:51:41;;;;;;;4.90;4.40;;;;;;;19.11;29.55;97790.63;10013928;29;20058;-59
2022/03/14 12:57:01;;;;;;;5.15;4.32;;;;;;;19.13;29.61;97783.03;10014765;29;20071;-57
2022/03/14 13:02:25;;;;;;;5.78;4.50;;;;;;;19.17;29.79;97791.34;10009703;29;20058;-57
2022/03/14 13:07:45;;;;;;;5.03;4.53;;;;;;;19.21;30.00;97799.63;10015778;29;20509;-59
2022/03/14 13:13:04;;;;;;;5.70;4.38;;;;;;;19.25;30.10;97801.44;10013989;29;20421;-57
2022/03/14 13:18:24;;;;;;;4.50;4.10;;;;;;;19.28;30.41;97802.75;10013723;29;20053;-58
2022/03/14 13:23:45;;;;;;;6.63;4.68;;;;;;;19.32;30.39;97812.66;10011568;29;20069;-58
2022/03/14 13:29:06;;;;;;;5.53;4.35;;;;;;;19.35;30.61;97819.38;10012716;29;20160;-57
2022/03/14 13:34:28;;;;;;;5.57;4.13;;;;;;;19.37;30.73;97819.88;10030713;29;20048;-58
2022/03/14 13:39:48;;;;;;;5.25;4.05;;;;;;;19.42;30.74;97830.59;10022534;29;20054;-58
2022/03/14 13:45:09;;;;;;;4.72;4.22;;;;;;;19.44;30.97;97836.50;10022431;29;20062;-58
2022/03/14 13:50:28;;;;;;;4.55;3.90;;;;;;;19.47;30.99;97844.00;10011733;29;20054;-58
2022/03/14 13:55:56;;;;;;;5.57;3.90;;;;;;;19.51;31.21;97841.53;10033708;29;20532;-58
2022/03/14 14:01:15;;;;;;;4.55;4.15;;;;;;;19.54;31.28;97839.03;10020281;29;20058;-58
2022/03/14 14:06:43;;;;;;;4.30;3.60;;;;;;;19.56;31.46;97842.22;10019033;29;20102;-58
2022/03/14 14:12:05;;;;;;;4.50;3.75;;;;;;;19.60;31.42;97828.94;10029882;29;20096;-58
2022/03/14 14:17:31;;;;;;;3.85;3.53;;;;;;;19.62;31.47;97828.59;10022933;29;20502;-58
2022/03/14 14:22:50;;;;;;;3.97;3.60;;;;;;;19.63;31.51;97833.72;10022202;29;20062;-57
2022/03/14 14:28:11;;;;;;;3.60;3.30;;;;;;;19.67;31.67;97844.75;10022284;29;20054;-58
2022/03/14 14:33:35;;;;;;;4.05;3.67;;;;;;;19.68;31.75;97843.63;10021985;29;20064;-58
2022/03/14 14:38:55;;;;;;;3.58;3.28;;;;;;;19.70;31.80;97858.47;10030022;29;20054;-58
2022/03/14 14:44:14;;;;;;;3.67;3.38;;;;;;;19.73;31.70;97867.91;10029743;29;20042;-58
2022/03/14 14:49:34;;;;;;;3.70;3.40;;;;;;;19.76;32.00;97878.13;10038804;29;20058;-58
2022/03/14 14:55:00;;;;;;;3.90;3.50;;;;;;;19.78;32.04;97884.03;10032740;29;20048;-58
2022/03/14 15:00:19;;;;;;;3.92;3.22;;;;;;;19.82;31.96;97895.84;10021685;29;20060;-58
2022/03/14 15:05:39;;;;;;;4.50;3.28;;;;;;;19.83;32.03;97885.84;9983644;29;20058;-58
2022/03/14 15:10:59;;;;;;;3.97;3.42;;;;;;;19.85;32.16;97889.84;9990946;29;20130;-58
2022/03/14 15:16:18;;;;;;;3.97;3.22;;;;;;;19.86;32.11;97899.56;10021279;29;20067;-58
2022/03/14 15:21:39;;;;;;;3.35;3.05;;;;;;;19.89;32.38;97895.44;10020534;29;20066;-58
2022/03/14 15:26:58;;;;;;;4.15;3.10;;;;;;;19.90;32.44;97892.47;10031766;29;20121;-58
2022/03/14 15:32:19;;;;;;;3.58;3.28;;;;;;;19.92;32.42;97897.56;10020725;29;20058;-58
2022/03/14 15:37:41;;;;;;;3.15;2.83;;;;;;;19.90;32.36;97887.03;10020576;29;20050;-58
2022/03/14 15:43:00;;;;;;;3.47;3.17;;;;;;;19.92;32.56;97900.28;10020329;29;20629;-58
2022/03/14 15:48:23;;;;;;;3.70;3.10;;;;;;;19.93;32.54;97909.97;10032088;29;20045;-58
2022/03/14 15:53:43;;;;;;;3.30;2.92;;;;;;;19.92;32.64;97909.19;10018986;29;20062;-58
2022/03/14 15:59:03;;;;;;;3.08;2.70;;;;;;;19.92;32.63;97913.78;10019401;29;20050;-58
2022/03/14 16:04:22;;;;;;;3.35;2.78;;;;;;;19.92;32.56;97897.56;10019387;29;20050;-58
2022/03/14 16:09:53;;;;;;;3.13;2.80;;;;;;;19.91;32.69;97901.34;10016604;29;20053;-58
2022/03/14 16:15:13;;;;;;;3.95;2.70;;;;;;;19.91;32.93;97917.59;10015460;29;20472;-57
2022/03/14 16:20:32;;;;;;;4.20;2.65;;;;;;;19.90;32.82;97934.94;10018178;29;20148;-58
2022/03/14 16:25:52;;;;;;;3.63;2.90;;;;;;;19.89;33.06;97942.22;10010484;29;20069;-58
2022/03/14 16:31:12;;;;;;;2.95;2.40;;;;;;;19.88;32.83;97951.44;10029149;29;20168;-54
2022/03/14 16:36:32;;;;;;;4.00;2.40;;;;;;;19.87;33.26;97955.25;10009658;29;20491;-56
2022/03/14 16:41:52;;;;;;;5.65;2.40;;;;;;;19.87;33.21;97968.75;10016498;29;20057;-60
2022/03/14 16:47:11;;;;;;;5.68;2.60;;;;;;;19.86;33.48;97972.56;10016240;29;20493;-61
2022/03/14 16:52:32;;;;;;;5.20;2.40;;;;;;;19.85;33.75;97972.88;10023103;29;20046;-63
2022/03/14 16:57:52;;;;;;;5.20;2.55;;;;;;;19.85;33.99;97984.47;10014637;29;20049;-58
2022/03/14 17:03:11;;;;;;;3.65;2.30;;;;;;;19.84;34.36;97987.50;10016225;29;20115;-61
2022/03/14 17:08:32;;;;;;;8.95;2.40;;;;;;;19.83;34.47;97985.88;10003837;29;20050;-62
2022/03/14 17:13:52;;;;;;;2.63;2.17;;;;;;;19.83;34.60;98000.19;10015559;29;20061;-58
2022/03/14 17:19:11;;;;;;;5.82;2.50;;;;;;;19.85;35.03;98002.63;10010627;29;20474;-57
2022/03/14 17:24:31;;;;;;;4.88;2.13;;;;;;;19.82;35.26;98012.13;10014054;29;20494;-57
2022/03/14 17:29:52;;;;;;;3.15;2.10;;;;;;;19.82;34.87;98025.66;10014513;29;20057;-57
2022/03/14 17:35:15;;;;;;;4.45;2.25;;;;;;;19.81;35.35;98021.31;10011470;29;20061;-57
2022/03/14 17:40:36;;;;;;;5.82;2.30;;;;;;;19.81;35.49;98042.97;10024255;29;20049;-61
2022/03/14 17:45:56;;;;;;;3.90;1.90;;;;;;;19.77;35.64;98039.25;10026699;29;20046;-61
2022/03/14 17:51:16;;;;;;;2.90;1.92;;;;;;;19.77;36.17;98058.16;10012021;29;20065;-62
2022/03/14 17:56:35;;;;;;;3.28;2.00;;;;;;;19.78;36.48;98062.50;10009453;29;20518;-61
2022/03/14 18:01:55;;;;;;;3.55;2.10;;;;;;;19.75;36.57;98058.47;10014331;29;20054;-61
2022/03/14 18:07:14;;;;;;;3.92;1.92;;;;;;;19.77;36.91;98062.78;10016244;29;20504;-61
2022/03/14 18:12:35;;;;;;;3.13;1.98;;;;;;;19.77;37.17;98070.91;10004000;29;20431;-58
2022/03/14 18:17:55;;;;;;;3.33;1.92;;;;;;;19.75;37.43;98073.88;10015607;29;20057;-61
2022/03/14 18:23:15;;;;;;;4.50;2.00;;;;;;;19.74;37.63;98078.50;10019692;29;20058;-61
2022/03/14 18:28:34;;;;;;;4.20;2.20;;;;;;;19.73;37.64;98085.00;10034063;29;20046;-60
2022/03/14 18:34:15;;;;;;;6.90;2.20;;;;;;;19.72;37.77;98086.09;10032326;29;20098;-61
2022/03/14 18:39:35;;;;;;;5.85;2.30;;;;;;;19.72;38.23;98096.91;10019699;29;20054;-56
2022/03/14 18:44:55;;;;;;;3.10;2.10;;;;;;;19.72;38.52;98088.00;10032763;29;20042;-57
2022/03/14 18:50:16;;;;;;;3.33;1.92;;;;;;;19.71;38.94;98089.06;10023754;29;20494;-61
2022/03/14 18:55:38;;;;;;;4.45;1.90;;;;;;;19.70;39.57;98101.78;10032512;29;20042;-60
2022/03/14 19:00:58;;;;;;;2.28;1.75;;;;;;;19.70;39.38;98099.09;10017741;29;20046;-58
2022/03/14 19:06:17;;;;;;;3.30;1.95;;;;;;;19.69;39.50;98105.56;10018710;29;20060;-57
2022/03/14 19:11:38;;;;;;;6.00;1.95;;;;;;;19.68;39.57;98103.97;10016853;29;20061;-57
2022/03/14 19:22:28;;;;;;;5.90;2.20;;;;;;;19.68;39.96;98101.28;10473772;24;20077;-57
2022/03/14 19:27:48;;;;;;;4.28;1.88;;;;;;;19.69;40.44;98110.97;10054100;29;20057;-58
2022/03/14 19:33:07;;;;;;;3.55;2.03;;;;;;;19.70;40.75;98115.31;10055180;29;20057;-59
2022/03/14 19:38:46;;;;;;;3.83;1.70;;;;;;;19.68;41.32;98111.25;10058989;29;20061;-55
2022/03/14 19:44:07;;;;;;;3.08;2.08;;;;;;;19.68;41.44;98111.25;10057576;29;20420;-56
2022/03/14 19:49:26;;;;;;;5.30;1.85;;;;;;;19.66;41.74;98111.59;10051904;29;20390;-57
2022/03/14 19:54:48;;;;;;;3.38;1.95;;;;;;;19.66;42.09;98118.88;10054788;24;20548;-87
2022/03/14 20:00:09;;;;;;;6.43;1.85;;;;;;;19.65;42.17;98126.19;10072380;29;20061;-87
2022/03/14 20:05:32;;;;;;;5.03;2.10;;;;;;;19.64;42.13;98138.09;10080582;29;20050;-87
2022/03/14 20:10:53;;;;;;;5.93;1.95;;;;;;;19.63;42.32;98143.78;10093960;29;20047;-87
2022/03/14 20:16:14;;;;;;;5.00;2.10;;;;;;;19.60;42.27;98147.06;10084146;29;20052;-87
2022/03/14 20:21:33;;;;;;;2.97;1.92;;;;;;;19.61;42.34;98157.59;10065660;29;20049;-86
2022/03/14 20:26:56;;;;;;;4.75;2.15;;;;;;;19.59;42.33;98164.41;10062103;29;20041;-86
2022/03/14 20:32:16;;;;;;;4.03;2.40;;;;;;;19.58;42.49;98150.06;10080341;29;20400;-83
2022/03/14 20:37:36;;;;;;;4.97;2.38;;;;;;;19.59;42.47;98167.09;10099378;29;20080;-83
2022/03/14 20:42:56;;;;;;;6.57;2.63;;;;;;;19.59;42.30;98159.78;10059170;29;20046;-83
2022/03/14 20:48:16;;;;;;;4.13;2.45;;;;;;;19.58;42.49;98163.56;10073837;29;20480;-84
2022/03/14 20:53:35;;;;;;;3.95;2.20;;;;;;;19.58;42.22;98157.38;10091711;29;20048;-84
2022/03/14 20:58:55;;;;;;;4.88;2.42;;;;;;;19.57;42.27;98156.56;10022046;29;20093;-84
2022/03/14 21:04:16;;;;;;;4.60;2.83;;;;;;;19.56;42.70;98163.88;10033332;29;20037;-83
2022/03/14 21:09:36;;;;;;;5.82;2.47;;;;;;;19.52;41.39;98173.69;10053457;29;20097;-84
2022/03/14 21:14:55;;;;;;;7.00;3.58;;;;;;;19.51;41.82;98160.44;10072341;29;20041;-84
2022/03/14 21:20:17;;;;;;;8.02;3.42;;;;;;;19.50;41.66;98165.06;10049342;29;20125;-84
2022/03/14 21:25:37;;;;;;;6.03;3.50;;;;;;;19.49;42.15;98171.53;10071484;29;20045;-84
2022/03/14 21:31:00;;;;;;;5.97;3.50;;;;;;;19.49;42.57;98171.53;10035867;29;20165;-84
2022/03/14 21:36:19;;;;;;;4.63;3.35;;;;;;;19.47;42.71;98168.31;10050017;29;20068;-84
2022/03/14 21:41:39;;;;;;;4.82;3.05;;;;;;;19.47;43.06;98167.53;10038284;29;20419;-84
2022/03/14 21:46:59;;;;;;;6.18;3.47;;;;;;;19.47;43.20;98167.53;10043801;29;20072;-84
2022/03/14 21:52:18;;;;;;;4.15;2.85;;;;;;;19.46;43.27;98176.72;10062923;29;20049;-84
2022/03/14 21:57:39;;;;;;;3.97;2.85;;;;;;;19.45;43.51;98173.22;10054785;29;20084;-84
2022/03/14 22:02:59;;;;;;;6.68;2.85;;;;;;;19.44;43.65;98174.31;10056689;29;20524;-84
2022/03/14 22:08:21;;;;;;;4.15;3.20;;;;;;;19.44;43.67;98177.00;10072927;29;20053;-85
2022/03/14 22:13:41;;;;;;;4.72;2.90;;;;;;;19.42;43.74;98173.78;10044094;29;20070;-84
2022/03/14 22:19:05;;;;;;;4.57;3.20;;;;;;;19.42;43.87;98173.78;10068703;29;20056;-84
2022/03/14 22:24:25;;;;;;;3.90;2.90;;;;;;;19.42;44.02;98189.22;10057353;29;20102;-84
2022/03/14 22:29:45;;;;;;;4.03;3.00;;;;;;;19.41;43.83;98180.31;10041153;29;20066;-84
2022/03/14 22:35:12;;;;;;;3.72;2.70;;;;;;;19.40;43.85;98178.69;10060852;29;20042;-84
2022/03/14 22:40:32;;;;;;;4.80;3.30;;;;;;;19.39;43.92;98170.88;10049269;29;20049;-84
2022/03/14 22:45:52;;;;;;;4.03;3.00;;;;;;;19.38;44.15;98163.84;10050445;29;20049;-84
2022/03/14 22:51:11;;;;;;;4.95;3.20;;;;;;;19.36;43.88;98158.72;10074014;29;20045;-84
2022/03/14 22:56:34;;;;;;;3.92;3.30;;;;;;;19.34;44.06;98147.41;10068282;29;20085;-84
2022/03/14 23:01:55;;;;;;;3.58;2.78;;;;;;;19.33;44.13;98152.03;10103688;29;20061;-84
2022/03/14 23:12:54;;;;;;;5.33;2.87;;;;;;;19.30;44.17;98149.88;10072001;29;20050;-84
2022/03/14 23:18:14;;;;;;;4.40;2.85;;;;;;;19.29;44.09;98151.00;10065869;29;20049;-84
2022/03/14 23:23:34;;;;;;;3.42;2.78;;;;;;;19.27;44.28;98136.19;10106764;29;20053;-84
2022/03/14 23:28:55;;;;;;;4.50;3.15;;;;;;;19.27;44.14;98128.88;10048061;29;20084;-84
2022/03/14 23:34:14;;;;;;;3.88;2.92;;;;;;;19.26;44.20;98118.34;10057726;29;20049;-84
2022/03/14 23:39:34;;;;;;;3.70;2.55;;;;;;;19.24;44.00;98136.75;10088650;29;20053;-83
2022/03/14 23:44:55;;;;;;;3.70;2.75;;;;;;;19.23;44.09;98138.66;10068652;29;20161;-83
2022/03/14 23:50:15;;;;;;;3.75;2.60;;;;;;;19.22;44.29;98134.31;10025312;29;20050;-83
2022/03/14 23:55:35;;;;;;;3.53;2.60;;;;;;;19.21;44.22;98126.50;10096837;29;20139;-83
